RYR39BP EBCI-LERS
Flight info
| Callsign | RYR39BP |
|---|---|
| Flight time | N/A |
| Altitude | 31000 |
| Route | CIV N872 LESDO DCT KOVIN DCT DUCRA UM728 RESMI UN857 DISAK/N0424F330 DCT DIRMO DCT VALKU DCT ATSUP DCT MINSO DCT DEGOL DCT PPG DCT ALBER P84 GIR |
| Aircraft | B738/M-SDE2E3FGHIRWXY/LB1 |
Departure
| Time | N/A |
|---|---|
| Airport | Brussels South Charleroi Airport (EBCI) |
Arrival
| Time | 2026-05-07 12:04 |
|---|---|
| Airport | Reus Airport (LERS) |
| Time | Latitude | Longitude | Altitude | Speed | Heading |
|---|---|---|---|---|---|
| 2026-05-07 11:55 | 41.17308 | 0.74512 | 7324 ft | 231 kts | 188° |
| 2026-05-07 11:56 | 41.15709 | 0.74347 | 7067 ft | 231 kts | 176° |
| 2026-05-07 11:56 | 41.14111 | 0.74487 | 6843 ft | 230 kts | 176° |
| 2026-05-07 11:56 | 41.12511 | 0.74598 | 6601 ft | 230 kts | 175° |
| 2026-05-07 11:56 | 41.10921 | 0.74696 | 6372 ft | 229 kts | 176° |
| 2026-05-07 11:57 | 41.09335 | 0.74864 | 6132 ft | 228 kts | 165° |
| 2026-05-07 11:57 | 41.07856 | 0.75570 | 5942 ft | 225 kts | 157° |
| 2026-05-07 11:57 | 41.06405 | 0.76339 | 5689 ft | 224 kts | 156° |
| 2026-05-07 11:57 | 41.05128 | 0.77470 | 5479 ft | 221 kts | 128° |
| 2026-05-07 11:58 | 41.04477 | 0.79250 | 5272 ft | 213 kts | 98° |
| 2026-05-07 11:58 | 41.04681 | 0.81137 | 5076 ft | 205 kts | 75° |
| 2026-05-07 11:58 | 41.05083 | 0.82942 | 4847 ft | 204 kts | 74° |
| 2026-05-07 11:58 | 41.05523 | 0.84715 | 4617 ft | 201 kts | 72° |
| 2026-05-07 11:59 | 41.05996 | 0.86452 | 4403 ft | 200 kts | 71° |
| 2026-05-07 11:59 | 41.06478 | 0.88159 | 4192 ft | 195 kts | 70° |
| 2026-05-07 11:59 | 41.06967 | 0.89871 | 4080 ft | 199 kts | 71° |
| 2026-05-07 11:59 | 41.07456 | 0.91567 | 4017 ft | 196 kts | 71° |
| 2026-05-07 12:00 | 41.07942 | 0.93260 | 3809 ft | 200 kts | 71° |
| 2026-05-07 12:00 | 41.08436 | 0.94964 | 3563 ft | 198 kts | 71° |
| 2026-05-07 12:00 | 41.08921 | 0.96641 | 3310 ft | 192 kts | 72° |
| 2026-05-07 12:00 | 41.09390 | 0.98269 | 3059 ft | 185 kts | 72° |
| 2026-05-07 12:01 | 41.09845 | 0.99841 | 2799 ft | 181 kts | 71° |
| 2026-05-07 12:01 | 41.10284 | 1.01355 | 2577 ft | 170 kts | 71° |
| 2026-05-07 12:01 | 41.10692 | 1.02767 | 2359 ft | 160 kts | 72° |
| 2026-05-07 12:01 | 41.11086 | 1.04134 | 2157 ft | 158 kts | 73° |
| 2026-05-07 12:02 | 41.11473 | 1.05475 | 1943 ft | 157 kts | 72° |
| 2026-05-07 12:02 | 41.11858 | 1.06796 | 1786 ft | 149 kts | 73° |
| 2026-05-07 12:02 | 41.12221 | 1.08048 | 1533 ft | 141 kts | 72° |
| 2026-05-07 12:02 | 41.12576 | 1.09257 | 1271 ft | 142 kts | 70° |
| 2026-05-07 12:03 | 41.12939 | 1.10506 | 1122 ft | 145 kts | 72° |
| 2026-05-07 12:03 | 41.13301 | 1.11779 | 932 ft | 150 kts | 72° |
| 2026-05-07 12:03 | 41.13675 | 1.13064 | 769 ft | 148 kts | 73° |
| 2026-05-07 12:03 | 41.14045 | 1.14334 | 563 ft | 147 kts | 71° |
| 2026-05-07 12:04 | 41.14410 | 1.15578 | 298 ft | 143 kts | 72° |
| 2026-05-07 12:04 | 41.14743 | 1.16729 | 241 ft | 114 kts | 67° |
| 2026-05-07 12:04 | 41.14954 | 1.17449 | 241 ft | 54 kts | 69° |
| 2026-05-07 12:04 | 41.15016 | 1.17619 | 241 ft | 7 kts | 360° |
| 2026-05-07 12:05 | 41.15059 | 1.17593 | 241 ft | 7 kts | 334° |
| 2026-05-07 12:05 | 41.15103 | 1.17568 | 241 ft | 8 kts | 340° |
| 2026-05-07 12:05 | 41.15145 | 1.17518 | 241 ft | 9 kts | 279° |
| 2026-05-07 12:05 | 41.15128 | 1.17442 | 241 ft | 8 kts | 248° |
| 2026-05-07 12:06 | 41.15107 | 1.17369 | 241 ft | 9 kts | 249° |
| 2026-05-07 12:06 | 41.15081 | 1.17279 | 241 ft | 12 kts | 249° |
| 2026-05-07 12:06 | 41.15052 | 1.17179 | 241 ft | 11 kts | 249° |
| 2026-05-07 12:06 | 41.15023 | 1.17081 | 241 ft | 12 kts | 249° |
| 2026-05-07 12:07 | 41.14987 | 1.16958 | 241 ft | 17 kts | 249° |
| 2026-05-07 12:07 | 41.14935 | 1.16783 | 241 ft | 23 kts | 249° |
| 2026-05-07 12:07 | 41.14873 | 1.16571 | 241 ft | 25 kts | 249° |
| 2026-05-07 12:07 | 41.14813 | 1.16367 | 241 ft | 23 kts | 249° |
| 2026-05-07 12:08 | 41.14756 | 1.16172 | 241 ft | 22 kts | 249° |
| 2026-05-07 12:08 | 41.14702 | 1.15982 | 241 ft | 22 kts | 249° |
| 2026-05-07 12:08 | 41.14648 | 1.15799 | 241 ft | 21 kts | 248° |
| 2026-05-07 12:08 | 41.14606 | 1.15656 | 241 ft | 12 kts | 249° |
| 2026-05-07 12:09 | 41.14620 | 1.15587 | 241 ft | 8 kts | 317° |
| 2026-05-07 12:09 | 41.14663 | 1.15561 | 241 ft | 4 kts | 339° |
| 2026-05-07 12:09 | 41.14672 | 1.15557 | 241 ft | 0 kts | 339° |